createdAt,value
2023-05-13T00:00:30.741Z,98.40
2023-05-13T00:05:34.395Z,99.90
2023-05-13T00:10:39.116Z,99.90
2023-05-13T00:15:42.674Z,99.90
2023-05-13T00:20:46.076Z,99.90
2023-05-13T00:25:51.896Z,99.90
2023-05-13T00:30:55.351Z,99.90
2023-05-13T00:35:58.780Z,99.90
2023-05-13T00:41:04.575Z,99.90
2023-05-13T00:46:07.952Z,99.90
2023-05-13T00:51:11.465Z,99.90
2023-05-13T00:56:21.723Z,99.70
2023-05-13T01:01:33.065Z,98.20
2023-05-13T01:06:43.272Z,96.30
2023-05-13T01:11:52.073Z,94.90
2023-05-13T01:17:01.509Z,94.30
2023-05-13T01:22:07.275Z,93.30
2023-05-13T01:27:10.930Z,93.40
2023-05-13T01:32:15.720Z,92.70
2023-05-13T01:37:21.103Z,92.10
2023-05-13T01:42:26.949Z,91.90
2023-05-13T01:47:30.387Z,91.80
2023-05-13T01:52:35.726Z,92.40
2023-05-13T01:57:39.391Z,92.50
2023-05-13T02:02:43.201Z,92.60
2023-05-13T02:07:47.960Z,92.70
2023-05-13T02:12:52.320Z,92.80
2023-05-13T02:17:55.791Z,93.10
2023-05-13T02:23:00.582Z,93.50
2023-05-13T02:28:05.447Z,93.20
2023-05-13T02:33:08.917Z,93.50
2023-05-13T02:38:13.663Z,93.70
2023-05-13T02:43:18.439Z,93.60
2023-05-13T02:48:28.728Z,93.90
2023-05-13T02:53:33.949Z,94.40
2023-05-13T02:58:41.495Z,94.50
2023-05-13T03:03:45.245Z,94.40
2023-05-13T03:08:50.011Z,94.50
2023-05-13T03:13:53.646Z,94.70
2023-05-13T03:18:58.394Z,94.20
2023-05-13T03:24:05.657Z,94.60
2023-05-13T03:29:09.250Z,95.10
2023-05-13T03:34:13.855Z,95.00
2023-05-13T03:39:18.776Z,94.40
2023-05-13T03:44:22.499Z,94.00
2023-05-13T03:49:26.313Z,93.70
2023-05-13T03:54:31.146Z,93.70
2023-05-13T03:59:34.858Z,93.00
2023-05-13T04:04:38.539Z,92.90
2023-05-13T04:09:43.255Z,92.80
2023-05-13T04:14:46.810Z,92.80
2023-05-13T04:19:52.825Z,92.80
2023-05-13T04:24:57.596Z,92.40
2023-05-13T04:30:01.329Z,91.80
2023-05-13T04:35:08.604Z,91.40
2023-05-13T04:40:14.846Z,90.90
2023-05-13T04:45:18.878Z,90.40
2023-05-13T04:50:23.563Z,89.90
2023-05-13T04:55:29.126Z,90.00
2023-05-13T05:00:33.409Z,89.00
2023-05-13T05:05:37.070Z,86.90
2023-05-13T05:10:42.831Z,76.60
2023-05-13T05:15:47.742Z,75.20
2023-05-13T05:20:51.703Z,72.20
2023-05-13T05:26:11.224Z,69.30
2023-05-13T05:31:19.094Z,62.90
2023-05-13T05:36:23.138Z,61.00
2023-05-13T05:41:28.651Z,59.90
2023-05-13T05:46:33.299Z,57.30
2023-05-13T05:51:38.506Z,56.90
2023-05-13T05:56:45.743Z,54.10
2023-05-13T06:01:49.154Z,52.80
2023-05-13T06:06:52.702Z,51.30
2023-05-13T06:11:57.677Z,50.30
2023-05-13T06:17:01.860Z,49.60
2023-05-13T06:22:07.218Z,50.90
2023-05-13T06:27:13.629Z,47.80
2023-05-13T06:32:19.540Z,47.20
2023-05-13T06:37:22.942Z,47.80
2023-05-13T06:42:27.784Z,48.10
2023-05-13T06:47:35.957Z,48.70
2023-05-13T06:52:41.867Z,48.30
2023-05-13T06:57:47.375Z,49.70
2023-05-13T07:02:50.993Z,48.70
2023-05-13T07:07:54.580Z,47.30
2023-05-13T07:12:59.494Z,45.90
2023-05-13T07:18:02.875Z,44.70
2023-05-13T07:23:06.663Z,43.10
2023-05-13T07:28:11.534Z,46.50
2023-05-13T07:33:15.458Z,45.30
2023-05-13T07:38:19.182Z,41.80
2023-05-13T07:43:24.255Z,42.30
2023-05-13T07:48:28.298Z,41.30
2023-05-13T07:53:32.295Z,41.00
2023-05-13T07:58:38.281Z,43.00
2023-05-13T08:03:41.818Z,39.20
2023-05-13T08:08:45.369Z,39.10
2023-05-13T08:13:50.178Z,39.00
2023-05-13T08:18:53.765Z,38.20
2023-05-13T08:23:57.144Z,37.60
2023-05-13T08:29:01.954Z,37.60
2023-05-13T08:34:06.579Z,39.70
2023-05-13T08:39:09.938Z,39.80
2023-05-13T08:44:18.916Z,40.40
2023-05-13T08:49:22.619Z,39.90
2023-05-13T08:54:26.825Z,39.20
2023-05-13T08:59:31.682Z,38.80
2023-05-13T09:04:37.811Z,38.30
2023-05-13T09:09:41.319Z,38.60
2023-05-13T09:14:46.025Z,39.20
2023-05-13T09:19:49.296Z,38.00
2023-05-13T09:24:56.176Z,37.90
2023-05-13T09:30:01.186Z,38.10
2023-05-13T09:35:18.838Z,38.10
2023-05-13T09:40:22.757Z,38.70
2023-05-13T09:45:27.800Z,38.70
2023-05-13T09:50:32.158Z,38.90
2023-05-13T09:55:35.607Z,37.80
2023-05-13T10:00:42.143Z,38.30
2023-05-13T10:05:46.046Z,37.70
2023-05-13T10:10:53.682Z,38.60
2023-05-13T10:15:59.530Z,38.20
2023-05-13T10:21:04.404Z,37.50
2023-05-13T10:26:08.380Z,38.70
2023-05-13T10:31:13.402Z,36.20
2023-05-13T10:36:43.412Z,36.10
2023-05-13T10:42:35.354Z,37.20
2023-05-13T10:47:40.122Z,37.50
2023-05-13T10:52:46.591Z,35.70
2023-05-13T10:58:10.969Z,35.20
2023-05-13T11:03:29.287Z,35.70
2023-05-13T11:08:39.635Z,34.90
2023-05-13T11:13:43.279Z,34.00
2023-05-13T11:18:51.628Z,35.30
2023-05-13T11:23:57.821Z,34.50
2023-05-13T11:29:05.582Z,33.40
2023-05-13T11:34:12.595Z,33.90
2023-05-13T11:39:17.417Z,35.70
2023-05-13T11:44:22.579Z,34.90
2023-05-13T11:49:39.478Z,34.20
2023-05-13T11:54:48.847Z,33.60
2023-05-13T11:59:55.280Z,34.70
2023-05-13T12:05:02.050Z,36.00
2023-05-13T12:10:07.255Z,33.70
2023-05-13T12:15:13.288Z,33.90
2023-05-13T12:20:19.815Z,35.30
2023-05-13T12:25:43.942Z,35.80
2023-05-13T12:30:51.724Z,34.60
2023-05-13T12:36:17.778Z,34.30
2023-05-13T12:41:22.858Z,34.70
2023-05-13T12:46:26.448Z,36.30
2023-05-13T12:51:32.955Z,38.10
2023-05-13T12:56:36.493Z,39.60
2023-05-13T13:01:40.136Z,36.90
2023-05-13T13:06:45.455Z,37.10
2023-05-13T13:11:48.897Z,37.80
2023-05-13T13:16:52.794Z,36.70
2023-05-13T13:21:58.228Z,36.30
2023-05-13T13:27:01.780Z,35.60
2023-05-13T13:32:06.358Z,35.10
2023-05-13T13:37:11.128Z,36.20
2023-05-13T13:42:14.476Z,37.70
2023-05-13T13:47:17.895Z,37.70
2023-05-13T13:52:23.750Z,37.20
2023-05-13T13:57:27.201Z,39.20
2023-05-13T14:02:31.110Z,38.80
2023-05-13T14:08:01.705Z,39.10
2023-05-13T14:13:06.603Z,37.10
2023-05-13T14:18:10.036Z,39.30
2023-05-13T14:23:14.751Z,39.90
2023-05-13T14:28:18.839Z,39.00
2023-05-13T14:33:22.186Z,40.20
2023-05-13T14:38:30.203Z,40.20
2023-05-13T14:43:33.539Z,38.60
2023-05-13T14:48:37.087Z,40.20
2023-05-13T14:53:42.540Z,42.00
2023-05-13T14:58:45.933Z,42.90
2023-05-13T15:03:49.899Z,40.70
2023-05-13T15:08:54.641Z,40.20
2023-05-13T15:13:58.426Z,39.60
2023-05-13T15:19:03.289Z,39.90
2023-05-13T15:24:08.557Z,40.10
2023-05-13T15:29:12.581Z,39.50
2023-05-13T15:34:16.132Z,39.40
2023-05-13T15:39:21.154Z,40.90
2023-05-13T15:44:25.024Z,39.60
2023-05-13T15:49:28.409Z,40.00
2023-05-13T15:54:34.532Z,40.30
2023-05-13T15:59:38.022Z,42.00
2023-05-13T16:04:42.223Z,42.10
2023-05-13T16:09:47.499Z,42.50
2023-05-13T16:14:51.333Z,44.80
2023-05-13T16:19:55.028Z,47.60
2023-05-13T16:25:00.962Z,49.80
2023-05-13T16:30:07.329Z,50.40
2023-05-13T16:35:11.856Z,50.90
2023-05-13T16:40:16.823Z,52.80
2023-05-13T16:45:20.671Z,55.60
2023-05-13T16:50:25.183Z,57.40
2023-05-13T16:55:32.182Z,58.40
2023-05-13T17:00:35.533Z,58.80
2023-05-13T17:05:39.116Z,59.10
2023-05-13T17:10:43.860Z,59.60
2023-05-13T17:15:47.480Z,60.50
2023-05-13T17:20:51.487Z,59.50
2023-05-13T17:25:56.417Z,59.10
2023-05-13T17:31:01.222Z,59.80
2023-05-13T17:36:05.578Z,59.40
2023-05-13T17:41:10.579Z,60.60
2023-05-13T17:46:14.526Z,61.20
2023-05-13T17:51:17.972Z,61.90
2023-05-13T17:56:22.772Z,59.50
2023-05-13T18:01:26.258Z,59.00
2023-05-13T18:06:30.350Z,59.50
2023-05-13T18:11:35.022Z,62.00
2023-05-13T18:16:38.563Z,66.10
2023-05-13T18:21:42.127Z,65.40
2023-05-13T18:26:47.322Z,64.60
2023-05-13T18:31:51.494Z,65.10
2023-05-13T18:36:55.095Z,66.10
2023-05-13T18:41:59.893Z,68.60
2023-05-13T18:47:04.015Z,70.20
2023-05-13T18:52:07.660Z,74.60
2023-05-13T18:57:12.353Z,75.80
2023-05-13T19:02:16.220Z,78.60
2023-05-13T19:07:19.819Z,79.40
2023-05-13T19:12:24.671Z,81.90
2023-05-13T19:17:28.153Z,86.30
2023-05-13T19:22:31.798Z,86.80
2023-05-13T19:27:37.675Z,87.60
2023-05-13T19:32:41.156Z,90.00
2023-05-13T19:37:44.695Z,92.00
2023-05-13T19:42:50.252Z,93.10
2023-05-13T19:47:53.977Z,92.30
2023-05-13T19:52:57.680Z,93.40
2023-05-13T19:58:02.597Z,95.70
2023-05-13T20:03:06.881Z,96.50
2023-05-13T20:08:10.695Z,96.30
2023-05-13T20:13:15.452Z,96.70
2023-05-13T20:18:18.798Z,99.90
2023-05-13T20:23:22.303Z,99.90
2023-05-13T20:28:27.014Z,99.90
2023-05-13T20:33:30.393Z,99.90
2023-05-13T20:38:34.328Z,99.90
2023-05-13T20:43:38.987Z,99.90
2023-05-13T20:48:42.847Z,99.90
2023-05-13T20:53:49.312Z,99.90
2023-05-13T20:58:54.639Z,99.90
2023-05-13T21:03:58.011Z,99.90
2023-05-13T21:09:01.379Z,99.90
2023-05-13T21:14:06.124Z,99.90
2023-05-13T21:19:19.362Z,99.90
2023-05-13T21:24:22.661Z,99.90
2023-05-13T21:29:30.083Z,99.90
2023-05-13T21:34:34.010Z,99.90
2023-05-13T21:39:37.356Z,99.90
2023-05-13T21:44:42.276Z,99.90
2023-05-13T21:49:45.844Z,99.90
2023-05-13T21:54:49.303Z,99.90
2023-05-13T21:59:53.932Z,99.90
2023-05-13T22:04:57.246Z,99.90
2023-05-13T22:10:00.687Z,99.90
2023-05-13T22:15:06.934Z,99.90
2023-05-13T22:20:12.261Z,99.90
2023-05-13T22:25:16.241Z,99.90
2023-05-13T22:30:22.028Z,99.90
2023-05-13T22:35:25.975Z,99.90
2023-05-13T22:40:29.290Z,99.90
2023-05-13T22:45:34.002Z,99.90
2023-05-13T22:50:37.505Z,99.90
2023-05-13T22:55:40.953Z,99.90
2023-05-13T23:00:46.184Z,99.90
2023-05-13T23:05:49.712Z,99.90
2023-05-13T23:10:53.094Z,99.90
2023-05-13T23:15:57.857Z,99.90
2023-05-13T23:21:02.588Z,99.90
2023-05-13T23:26:06.000Z,99.90
2023-05-13T23:31:10.882Z,99.90
2023-05-13T23:36:16.063Z,99.90
2023-05-13T23:41:20.158Z,99.90
2023-05-13T23:46:24.947Z,99.90
2023-05-13T23:51:28.465Z,99.90
2023-05-13T23:56:32.392Z,99.90
